Time;durP1;ratioP1;P1;durP2;ratioP2;P2;SDS_P1;SDS_P2;PMS_P1;PMS_P2;Temp;Humidity;BMP_temperature;BMP_pressure;BME280_temperature;BME280_humidity;BME280_pressure;Samples;Min_cycle;Max_cycle;Signal;HPM_P1;HPM_P2
2023/01/02 00:00:06;;;;;;;7.93;4.57;;;;;;;;;;5022034;28;20860;-80
2023/01/02 00:02:32;;;;;;;7.50;4.20;;;;;;;;;;5016437;28;20474;-80
2023/01/02 00:04:58;;;;;;;9.73;4.23;;;;;;;;;;5021158;28;20461;-80
2023/01/02 00:07:25;;;;;;;7.83;3.57;;;;;;;;;;5016024;28;21196;-81
2023/01/02 00:09:52;;;;;;;15.90;4.63;;;;;;;;;;5011969;28;20469;-80
2023/01/02 00:12:19;;;;;;;5.90;4.03;;;;;;;;;;5018167;28;20481;-81
2023/01/02 00:14:45;;;;;;;11.73;4.37;;;;;;;;;;5011742;28;20466;-80
2023/01/02 00:17:11;;;;;;;8.67;4.63;;;;;;;;;;5012279;28;20477;-81
2023/01/02 00:19:38;;;;;;;9.90;4.70;;;;;;;;;;5011512;28;20490;-81
2023/01/02 00:22:04;;;;;;;11.83;5.03;;;;;;;;;;5012247;28;20471;-80
2023/01/02 00:24:30;;;;;;;7.07;4.50;;;;;;;;;;5016149;28;20454;-80
2023/01/02 00:26:58;;;;;;;6.63;4.20;;;;;;;;;;5014413;28;20470;-80
2023/01/02 00:29:24;;;;;;;8.53;5.13;;;;;;;;;;5013347;28;20458;-80
2023/01/02 00:31:51;;;;;;;9.60;4.77;;;;;;;;;;5012791;28;20469;-81
2023/01/02 00:34:17;;;;;;;10.00;5.60;;;;;;;;;;5016778;28;20445;-80
2023/01/02 00:36:44;;;;;;;11.53;5.63;;;;;;;;;;5015077;28;20497;-80
2023/01/02 00:39:10;;;;;;;6.83;5.13;;;;;;;;;;5023077;28;20496;-80
2023/01/02 00:41:36;;;;;;;7.07;4.57;;;;;;;;;;5016686;28;20466;-80
2023/01/02 00:44:04;;;;;;;11.77;6.60;;;;;;;;;;5020339;28;20465;-80
2023/01/02 00:46:30;;;;;;;11.07;5.77;;;;;;;;;;5015019;28;20469;-81
2023/01/02 00:48:57;;;;;;;11.23;5.67;;;;;;;;;;5019764;28;20473;-81
2023/01/02 00:51:23;;;;;;;9.90;5.97;;;;;;;;;;5022328;28;20465;-80
2023/01/02 00:53:49;;;;;;;10.67;5.77;;;;;;;;;;5017131;28;20458;-80
2023/01/02 00:56:16;;;;;;;12.53;5.77;;;;;;;;;;5024391;28;20464;-81
2023/01/02 00:58:42;;;;;;;13.07;6.03;;;;;;;;;;5019582;28;20490;-80
2023/01/02 01:01:10;;;;;;;11.30;6.00;;;;;;;;;;5021324;28;20480;-80
2023/01/02 01:03:37;;;;;;;10.03;6.83;;;;;;;;;;5017521;28;20454;-80
2023/01/02 01:06:07;;;;;;;10.20;6.00;;;;;;;;;;5016841;28;20879;-80
2023/01/02 01:08:34;;;;;;;8.80;6.33;;;;;;;;;;5018160;28;20500;-80
2023/01/02 01:11:05;;;;;;;13.17;7.47;;;;;;;;;;5018639;28;20469;-81
2023/01/02 01:13:31;;;;;;;8.30;5.57;;;;;;;;;;5023146;28;20454;-80
2023/01/02 01:16:03;;;;;;;13.50;6.97;;;;;;;;;;5019182;28;20449;-80
2023/01/02 01:18:30;;;;;;;8.87;5.83;;;;;;;;;;5013573;28;20478;-80
2023/01/02 01:20:57;;;;;;;12.90;7.20;;;;;;;;;;5016408;28;20484;-80
2023/01/02 01:23:23;;;;;;;9.63;5.93;;;;;;;;;;5019954;28;20472;-80
2023/01/02 01:25:49;;;;;;;9.60;6.97;;;;;;;;;;5023320;28;20449;-80
2023/01/02 01:28:16;;;;;;;7.93;6.10;;;;;;;;;;5016512;28;20492;-80
2023/01/02 01:30:42;;;;;;;14.93;6.60;;;;;;;;;;5020602;28;20653;-80
2023/01/02 01:33:08;;;;;;;9.70;6.23;;;;;;;;;;5020412;28;20472;-80
2023/01/02 01:35:36;;;;;;;16.13;6.50;;;;;;;;;;5014973;28;20445;-80
2023/01/02 01:38:02;;;;;;;8.43;5.90;;;;;;;;;;5016948;28;20876;-80
2023/01/02 01:40:29;;;;;;;10.83;6.40;;;;;;;;;;5017486;28;20497;-80
2023/01/02 01:42:55;;;;;;;13.53;7.63;;;;;;;;;;5017321;28;20466;-80
2023/01/02 01:45:21;;;;;;;21.50;8.10;;;;;;;;;;5020489;28;20452;-80
2023/01/02 01:47:50;;;;;;;9.00;5.77;;;;;;;;;;5018243;28;20850;-81
2023/01/02 01:50:19;;;;;;;10.97;7.03;;;;;;;;;;5018720;28;20438;-80
2023/01/02 01:52:49;;;;;;;11.53;6.43;;;;;;;;;;5016760;28;20486;-80
2023/01/02 01:55:17;;;;;;;23.53;7.90;;;;;;;;;;5012852;28;20831;-80
2023/01/02 01:57:46;;;;;;;11.60;6.00;;;;;;;;;;5017792;28;20543;-80
2023/01/02 02:00:13;;;;;;;10.93;6.10;;;;;;;;;;5014063;28;21052;-80
2023/01/02 02:02:42;;;;;;;9.47;6.80;;;;;;;;;;5016079;28;20470;-80
2023/01/02 02:05:10;;;;;;;11.17;6.47;;;;;;;;;;5014216;28;20989;-80
2023/01/02 02:07:39;;;;;;;12.70;6.33;;;;;;;;;;5019813;28;20482;-80
2023/01/02 02:10:08;;;;;;;8.83;6.50;;;;;;;;;;5015260;28;20817;-80
2023/01/02 02:12:35;;;;;;;12.80;8.10;;;;;;;;;;5020853;28;20485;-80
2023/01/02 02:15:01;;;;;;;14.17;7.33;;;;;;;;;;5018561;28;21385;-80
2023/01/02 02:17:33;;;;;;;17.37;8.20;;;;;;;;;;5017084;28;20473;-80
2023/01/02 02:20:07;;;;;;;13.17;6.20;;;;;;;;;;5016795;28;20485;-80
2023/01/02 02:22:51;;;;;;;14.43;7.20;;;;;;;;;;5019531;28;20475;-80
2023/01/02 02:25:30;;;;;;;10.77;6.37;;;;;;;;;;5017443;28;20447;-80
2023/01/02 02:28:09;;;;;;;11.10;7.70;;;;;;;;;;5012443;28;20600;-80
2023/01/02 02:30:40;;;;;;;8.73;6.53;;;;;;;;;;5017096;28;20970;-80
2023/01/02 02:33:17;;;;;;;13.53;6.70;;;;;;;;;;5013817;28;20478;-80
2023/01/02 02:35:49;;;;;;;12.10;7.60;;;;;;;;;;5017369;28;20457;-80
2023/01/02 02:38:19;;;;;;;8.90;6.57;;;;;;;;;;5012559;28;20482;-80
2023/01/02 02:40:50;;;;;;;22.93;9.30;;;;;;;;;;5019961;28;20471;-80
2023/01/02 02:43:21;;;;;;;11.03;6.67;;;;;;;;;;5016121;28;20504;-80
2023/01/02 02:45:53;;;;;;;9.33;6.87;;;;;;;;;;5016354;28;20994;-80
2023/01/02 02:48:23;;;;;;;10.00;6.90;;;;;;;;;;5019567;28;20573;-80
2023/01/02 02:50:53;;;;;;;13.77;6.93;;;;;;;;;;5021035;28;20443;-80
2023/01/02 02:53:22;;;;;;;15.97;7.70;;;;;;;;;;5015223;28;20854;-80
2023/01/02 02:55:50;;;;;;;15.87;9.63;;;;;;;;;;5018911;28;20462;-80
2023/01/02 02:58:18;;;;;;;10.30;8.23;;;;;;;;;;5018002;28;20484;-80
2023/01/02 03:00:44;;;;;;;14.70;8.67;;;;;;;;;;5008336;28;20856;-80
2023/01/02 03:03:16;;;;;;;16.60;9.27;;;;;;;;;;5014554;28;20481;-80
2023/01/02 03:05:43;;;;;;;20.70;9.57;;;;;;;;;;5016032;28;20450;-81
2023/01/02 03:08:11;;;;;;;11.37;7.80;;;;;;;;;;5019827;28;20481;-80
2023/01/02 03:10:47;;;;;;;18.40;9.10;;;;;;;;;;5018069;28;20443;-80
2023/01/02 03:13:14;;;;;;;14.03;8.70;;;;;;;;;;5014711;28;20516;-80
2023/01/02 03:15:41;;;;;;;17.00;8.97;;;;;;;;;;5009975;28;20469;-80
2023/01/02 03:18:10;;;;;;;20.03;9.27;;;;;;;;;;5017100;28;20482;-80
2023/01/02 03:20:41;;;;;;;17.43;9.30;;;;;;;;;;5012870;28;20492;-80
2023/01/02 03:23:10;;;;;;;15.10;8.93;;;;;;;;;;5016556;28;20473;-80
2023/01/02 03:25:37;;;;;;;14.20;9.03;;;;;;;;;;5012464;28;20454;-80
2023/01/02 03:28:04;;;;;;;12.37;8.23;;;;;;;;;;5017871;28;20481;-80
2023/01/02 03:30:32;;;;;;;16.33;8.73;;;;;;;;;;5016749;28;20441;-80
2023/01/02 03:33:03;;;;;;;19.47;9.23;;;;;;;;;;5016049;28;20493;-81
2023/01/02 03:35:32;;;;;;;12.20;9.00;;;;;;;;;;5013383;28;20457;-80
2023/01/02 03:38:02;;;;;;;14.97;9.10;;;;;;;;;;5016452;28;20473;-80
2023/01/02 03:40:32;;;;;;;13.33;8.27;;;;;;;;;;5008734;28;20495;-80
2023/01/02 03:43:01;;;;;;;18.13;9.03;;;;;;;;;;5016507;28;20557;-80
2023/01/02 03:45:31;;;;;;;11.37;8.73;;;;;;;;;;5014667;28;20446;-80
2023/01/02 03:48:00;;;;;;;12.43;8.70;;;;;;;;;;5010420;28;20577;-81
2023/01/02 03:50:30;;;;;;;17.80;7.47;;;;;;;;;;5006283;28;20452;-80
2023/01/02 03:52:56;;;;;;;15.60;10.00;;;;;;;;;;5016456;28;20466;-80
2023/01/02 03:55:25;;;;;;;16.43;7.63;;;;;;;;;;5018101;28;20465;-80
2023/01/02 03:57:58;;;;;;;13.57;7.27;;;;;;;;;;5013216;28;20482;-81
2023/01/02 04:00:30;;;;;;;16.70;8.27;;;;;;;;;;5016502;28;20465;-81
2023/01/02 04:02:59;;;;;;;16.00;8.83;;;;;;;;;;5012892;28;20474;-80
2023/01/02 04:05:30;;;;;;;17.17;7.90;;;;;;;;;;5018374;28;20417;-81
2023/01/02 04:07:59;;;;;;;13.77;8.50;;;;;;;;;;5014135;28;20481;-80
2023/01/02 04:10:29;;;;;;;10.20;9.10;;;;;;;;;;5018761;28;20461;-81
2023/01/02 04:12:58;;;;;;;13.23;7.73;;;;;;;;;;5010810;28;20482;-80
2023/01/02 04:15:26;;;;;;;10.97;8.40;;;;;;;;;;5017331;28;20467;-80
2023/01/02 04:17:54;;;;;;;10.87;6.77;;;;;;;;;;5011539;28;20493;-80
2023/01/02 04:20:22;;;;;;;13.43;8.10;;;;;;;;;;5011828;28;20482;-80
2023/01/02 04:22:52;;;;;;;13.17;7.10;;;;;;;;;;5016004;28;20859;-80
2023/01/02 04:25:19;;;;;;;15.33;7.03;;;;;;;;;;5017207;28;21002;-80
2023/01/02 04:27:49;;;;;;;15.10;8.07;;;;;;;;;;5012547;28;20485;-80
2023/01/02 04:30:16;;;;;;;15.40;8.77;;;;;;;;;;5017298;28;20443;-80
2023/01/02 04:32:43;;;;;;;17.20;8.00;;;;;;;;;;5017026;28;20466;-80
2023/01/02 04:35:11;;;;;;;13.30;7.80;;;;;;;;;;5009253;28;20534;-80
2023/01/02 04:37:38;;;;;;;11.17;8.00;;;;;;;;;;5019649;28;20991;-80
2023/01/02 04:40:08;;;;;;;13.97;9.03;;;;;;;;;;5014711;28;20839;-80
2023/01/02 04:42:34;;;;;;;12.23;8.77;;;;;;;;;;5014069;28;20463;-80
2023/01/02 04:45:02;;;;;;;14.50;8.10;;;;;;;;;;5014117;28;20938;-80
2023/01/02 04:47:28;;;;;;;15.53;8.63;;;;;;;;;;5009283;28;20485;-80
2023/01/02 04:49:54;;;;;;;11.30;8.30;;;;;;;;;;5015521;28;20480;-80
2023/01/02 04:52:22;;;;;;;15.50;8.40;;;;;;;;;;5011696;28;21019;-80
2023/01/02 04:54:48;;;;;;;16.30;8.53;;;;;;;;;;5016263;28;20465;-80
2023/01/02 04:57:14;;;;;;;13.80;8.33;;;;;;;;;;5012680;28;21022;-80
2023/01/02 04:59:41;;;;;;;13.37;8.73;;;;;;;;;;5011493;28;20457;-80
2023/01/02 05:02:08;;;;;;;14.20;8.57;;;;;;;;;;5015619;28;20473;-80
2023/01/02 05:04:35;;;;;;;10.97;9.07;;;;;;;;;;5015758;28;20458;-80
2023/01/02 05:07:02;;;;;;;14.67;8.97;;;;;;;;;;5014681;28;20485;-80
2023/01/02 05:09:28;;;;;;;18.47;9.30;;;;;;;;;;5009563;28;20467;-80
2023/01/02 05:11:54;;;;;;;12.67;9.20;;;;;;;;;;5012621;28;20477;-80
2023/01/02 05:14:20;;;;;;;13.10;9.70;;;;;;;;;;5014696;28;20460;-80
2023/01/02 05:16:47;;;;;;;11.20;9.10;;;;;;;;;;5015712;28;20477;-80
2023/01/02 05:19:15;;;;;;;13.40;8.47;;;;;;;;;;5016862;28;20474;-80
2023/01/02 05:24:26;;;;;;;11.00;8.97;;;;;;;;;;5018537;28;20469;-80
2023/01/02 05:26:53;;;;;;;12.80;8.80;;;;;;;;;;5020116;28;20552;-80
2023/01/02 05:29:20;;;;;;;16.13;8.37;;;;;;;;;;5020849;28;20488;-80
2023/01/02 05:31:47;;;;;;;16.67;9.33;;;;;;;;;;5022587;28;21004;-80
2023/01/02 05:34:15;;;;;;;12.10;8.20;;;;;;;;;;5026229;28;20897;-80
2023/01/02 05:36:42;;;;;;;13.17;8.53;;;;;;;;;;5016991;28;20448;-80
2023/01/02 05:39:08;;;;;;;12.27;8.40;;;;;;;;;;5017153;28;20480;-80
2023/01/02 05:41:35;;;;;;;13.67;9.03;;;;;;;;;;5019243;28;20545;-80
2023/01/02 05:44:01;;;;;;;11.83;9.83;;;;;;;;;;5018838;28;20469;-80
2023/01/02 05:46:29;;;;;;;16.07;10.13;;;;;;;;;;5023493;28;20469;-80
2023/01/02 05:48:56;;;;;;;15.47;10.53;;;;;;;;;;5017489;28;20489;-80
2023/01/02 05:51:23;;;;;;;13.87;10.20;;;;;;;;;;5018729;28;20469;-80
2023/01/02 05:53:52;;;;;;;13.70;9.83;;;;;;;;;;5018607;28;20437;-80
2023/01/02 05:56:20;;;;;;;12.10;10.53;;;;;;;;;;5019580;28;20556;-80
2023/01/02 05:58:47;;;;;;;12.87;9.87;;;;;;;;;;5023358;28;20818;-80
2023/01/02 06:01:14;;;;;;;13.60;10.57;;;;;;;;;;5018555;28;20477;-80
2023/01/02 06:03:44;;;;;;;16.43;12.00;;;;;;;;;;5018507;28;20498;-80
2023/01/02 06:06:11;;;;;;;15.80;10.90;;;;;;;;;;5017565;28;20468;-80
2023/01/02 06:08:39;;;;;;;18.47;12.27;;;;;;;;;;5021311;28;20470;-80
2023/01/02 06:11:06;;;;;;;22.43;12.80;;;;;;;;;;5014419;28;20453;-80
2023/01/02 06:13:33;;;;;;;17.73;12.40;;;;;;;;;;5015427;28;20462;-80
2023/01/02 06:16:00;;;;;;;16.63;12.73;;;;;;;;;;5014217;28;20828;-80
2023/01/02 06:18:27;;;;;;;20.23;13.70;;;;;;;;;;5038235;28;20477;-80
2023/01/02 06:20:57;;;;;;;15.43;12.17;;;;;;;;;;5036098;28;20486;-80
2023/01/02 06:23:25;;;;;;;17.90;12.40;;;;;;;;;;5034785;28;20473;-80
2023/01/02 06:25:53;;;;;;;18.83;12.90;;;;;;;;;;5035909;28;20460;-80
2023/01/02 06:28:19;;;;;;;19.33;12.70;;;;;;;;;;5034815;28;20485;-80
2023/01/02 06:30:46;;;;;;;21.23;13.17;;;;;;;;;;5038957;28;20462;-80
2023/01/02 06:33:12;;;;;;;19.60;12.70;;;;;;;;;;5034768;28;20477;-80
2023/01/02 06:35:39;;;;;;;19.03;12.57;;;;;;;;;;5037283;28;21008;-80
2023/01/02 06:38:05;;;;;;;17.57;12.33;;;;;;;;;;5038371;28;20484;-80
2023/01/02 06:40:31;;;;;;;21.23;13.10;;;;;;;;;;5039052;28;20468;-80
2023/01/02 06:42:59;;;;;;;14.50;12.57;;;;;;;;;;5037310;28;21055;-80
2023/01/02 06:45:26;;;;;;;19.13;10.80;;;;;;;;;;5039021;28;20449;-80
2023/01/02 06:47:56;;;;;;;16.27;11.80;;;;;;;;;;5033755;28;20540;-80
2023/01/02 06:50:22;;;;;;;22.00;12.00;;;;;;;;;;5032801;28;20456;-80
2023/01/02 06:52:49;;;;;;;21.70;12.77;;;;;;;;;;5033436;28;20481;-80
2023/01/02 06:55:15;;;;;;;18.77;12.40;;;;;;;;;;5032428;28;20457;-80
2023/01/02 06:57:42;;;;;;;20.80;13.13;;;;;;;;;;5036782;28;20486;-80
2023/01/02 07:00:11;;;;;;;15.40;12.23;;;;;;;;;;5042495;28;20464;-80
2023/01/02 07:02:37;;;;;;;14.57;12.70;;;;;;;;;;5037337;28;20472;-80
2023/01/02 07:05:04;;;;;;;15.60;11.90;;;;;;;;;;5035332;28;20807;-80
2023/01/02 07:07:31;;;;;;;19.20;12.77;;;;;;;;;;5037289;28;20480;-80
2023/01/02 07:09:57;;;;;;;18.17;13.20;;;;;;;;;;5036737;28;20468;-80
2023/01/02 07:12:23;;;;;;;17.20;11.10;;;;;;;;;;5033474;28;20477;-80
2023/01/02 07:14:50;;;;;;;18.60;13.00;;;;;;;;;;5040472;28;20468;-81
2023/01/02 07:17:18;;;;;;;18.70;11.30;;;;;;;;;;5039712;28;20487;-81
2023/01/02 07:19:44;;;;;;;16.23;11.90;;;;;;;;;;5034154;28;20453;-81
2023/01/02 07:22:10;;;;;;;15.80;11.40;;;;;;;;;;5038395;28;20484;-81
2023/01/02 07:24:37;;;;;;;14.33;11.07;;;;;;;;;;5033181;28;20450;-81
2023/01/02 07:27:04;;;;;;;14.20;10.90;;;;;;;;;;5037035;28;20480;-81
2023/01/02 07:29:30;;;;;;;16.20;10.90;;;;;;;;;;5035155;28;20995;-81
2023/01/02 07:31:56;;;;;;;16.33;10.83;;;;;;;;;;5032083;28;20839;-81
2023/01/02 07:34:25;;;;;;;11.47;10.33;;;;;;;;;;5031549;28;20462;-81
2023/01/02 07:36:51;;;;;;;13.93;10.80;;;;;;;;;;5033641;28;20472;-81
2023/01/02 07:39:17;;;;;;;14.87;10.50;;;;;;;;;;5037908;28;20489;-81
2023/01/02 07:41:44;;;;;;;10.83;9.23;;;;;;;;;;5043323;28;20878;-81
2023/01/02 07:44:10;;;;;;;12.20;10.03;;;;;;;;;;5031821;28;20545;-81
2023/01/02 07:46:36;;;;;;;14.77;10.17;;;;;;;;;;5034004;28;20501;-80
2023/01/02 07:49:03;;;;;;;13.77;10.50;;;;;;;;;;5034071;28;20495;-81
2023/01/02 07:51:30;;;;;;;21.00;10.57;;;;;;;;;;5033992;28;20846;-80
2023/01/02 07:53:57;;;;;;;17.63;10.33;;;;;;;;;;5036840;28;20465;-80
2023/01/02 07:56:23;;;;;;;14.33;10.87;;;;;;;;;;5038177;28;20472;-81
2023/01/02 07:58:50;;;;;;;15.43;9.73;;;;;;;;;;5033275;28;20556;-80
2023/01/02 08:01:17;;;;;;;11.03;10.00;;;;;;;;;;5037269;28;20488;-81
2023/01/02 08:03:43;;;;;;;12.50;10.73;;;;;;;;;;5041088;28;21026;-80
2023/01/02 08:06:11;;;;;;;14.20;9.97;;;;;;;;;;5030364;28;20451;-81
2023/01/02 08:08:39;;;;;;;12.67;9.13;;;;;;;;;;5027088;28;20473;-80
2023/01/02 08:11:07;;;;;;;18.53;10.20;;;;;;;;;;5036507;28;20460;-81
2023/01/02 08:13:34;;;;;;;15.17;10.83;;;;;;;;;;5037451;28;20462;-80
2023/01/02 08:16:03;;;;;;;14.13;10.00;;;;;;;;;;5038439;28;20445;-80
2023/01/02 08:18:29;;;;;;;14.13;10.10;;;;;;;;;;5039957;28;20511;-80
2023/01/02 08:20:56;;;;;;;10.80;9.70;;;;;;;;;;5035477;28;20467;-80
2023/01/02 08:23:22;;;;;;;16.30;10.40;;;;;;;;;;5033419;28;20476;-80
2023/01/02 08:25:50;;;;;;;13.27;9.40;;;;;;;;;;5036317;28;20460;-80
2023/01/02 08:28:16;;;;;;;11.60;9.80;;;;;;;;;;5036655;28;20496;-80
2023/01/02 08:30:42;;;;;;;10.60;9.50;;;;;;;;;;5034119;28;20462;-80
2023/01/02 08:33:08;;;;;;;14.37;9.73;;;;;;;;;;5033035;28;20545;-79
2023/01/02 08:35:35;;;;;;;15.23;9.87;;;;;;;;;;5030546;28;20461;-79
2023/01/02 08:38:03;;;;;;;14.80;9.47;;;;;;;;;;5031210;28;20500;-80
2023/01/02 08:40:30;;;;;;;14.07;9.83;;;;;;;;;;5033098;28;20472;-80
2023/01/02 08:42:58;;;;;;;13.63;10.00;;;;;;;;;;5032684;28;20990;-80
2023/01/02 08:45:24;;;;;;;13.47;10.30;;;;;;;;;;5034663;28;20467;-80
2023/01/02 08:47:50;;;;;;;10.97;8.83;;;;;;;;;;5032613;28;20484;-80
2023/01/02 08:50:17;;;;;;;12.37;8.60;;;;;;;;;;5034364;28;20450;-80
2023/01/02 08:52:43;;;;;;;16.17;9.30;;;;;;;;;;5034570;28;20477;-80
2023/01/02 08:55:10;;;;;;;14.30;8.70;;;;;;;;;;5031871;28;20720;-80
2023/01/02 08:57:37;;;;;;;10.33;8.00;;;;;;;;;;5033120;28;20481;-80
2023/01/02 09:00:05;;;;;;;11.40;8.13;;;;;;;;;;5036637;28;20442;-80
2023/01/02 09:02:31;;;;;;;9.63;7.83;;;;;;;;;;5037720;28;20568;-80
2023/01/02 09:04:58;;;;;;;13.80;8.23;;;;;;;;;;5039588;28;20464;-80
2023/01/02 09:07:25;;;;;;;11.70;7.90;;;;;;;;;;5034114;28;20456;-80
2023/01/02 09:09:51;;;;;;;19.20;7.70;;;;;;;;;;5035083;28;20494;-80
2023/01/02 09:12:19;;;;;;;14.13;8.60;;;;;;;;;;5037805;28;20476;-80
2023/01/02 09:14:45;;;;;;;8.63;7.00;;;;;;;;;;5039272;28;20471;-80
2023/01/02 09:17:13;;;;;;;10.63;7.20;;;;;;;;;;5038284;28;20472;-80
2023/01/02 09:19:41;;;;;;;8.50;7.00;;;;;;;;;;5039754;28;20471;-80
2023/01/02 09:22:08;;;;;;;11.37;6.50;;;;;;;;;;5039421;28;20480;-79
2023/01/02 09:24:34;;;;;;;7.87;6.70;;;;;;;;;;5035388;28;20445;-80
2023/01/02 09:27:00;;;;;;;10.37;6.90;;;;;;;;;;5035040;28;20779;-80
2023/01/02 09:29:27;;;;;;;7.80;6.30;;;;;;;;;;5033968;28;20486;-80
2023/01/02 09:31:53;;;;;;;9.50;5.60;;;;;;;;;;5044685;28;20493;-80
2023/01/02 09:34:22;;;;;;;9.60;5.60;;;;;;;;;;5038355;28;20488;-80
2023/01/02 09:36:49;;;;;;;5.87;5.27;;;;;;;;;;5035686;28;20467;-80
2023/01/02 09:39:17;;;;;;;6.93;4.87;;;;;;;;;;5038688;28;20857;-80
2023/01/02 09:41:45;;;;;;;8.00;4.83;;;;;;;;;;5036644;28;20472;-80
2023/01/02 09:44:14;;;;;;;7.67;5.13;;;;;;;;;;5035455;28;20465;-80
2023/01/02 09:46:43;;;;;;;4.00;3.70;;;;;;;;;;5032723;28;20481;-80
2023/01/02 09:49:12;;;;;;;6.93;4.97;;;;;;;;;;5040467;28;20489;-80
2023/01/02 09:51:40;;;;;;;6.93;4.40;;;;;;;;;;5033262;28;20481;-80
2023/01/02 09:54:09;;;;;;;13.40;5.37;;;;;;;;;;5036597;28;20464;-80
2023/01/02 09:56:38;;;;;;;8.60;4.43;;;;;;;;;;5041557;28;20472;-80
2023/01/02 09:59:07;;;;;;;12.47;4.90;;;;;;;;;;5043645;28;21010;-80
2023/01/02 10:01:37;;;;;;;3.97;3.67;;;;;;;;;;5036333;28;20465;-80
2023/01/02 10:04:11;;;;;;;5.10;4.10;;;;;;;;;;5038790;28;20448;-80
2023/01/02 10:06:43;;;;;;;3.63;3.30;;;;;;;;;;5038938;28;20477;-79
2023/01/02 10:09:12;;;;;;;5.53;3.37;;;;;;;;;;5037483;28;20559;-79
2023/01/02 10:11:43;;;;;;;5.03;3.57;;;;;;;;;;5037340;28;20504;-79
2023/01/02 10:14:13;;;;;;;3.50;2.73;;;;;;;;;;5035282;28;20464;-80
2023/01/02 10:16:42;;;;;;;5.10;3.10;;;;;;;;;;5033926;28;20483;-79
2023/01/02 10:19:12;;;;;;;2.90;2.70;;;;;;;;;;5035609;28;20989;-79
2023/01/02 10:21:39;;;;;;;2.50;2.30;;;;;;;;;;5038527;28;20468;-79
2023/01/02 10:24:10;;;;;;;2.37;2.00;;;;;;;;;;5039530;28;20481;-79
2023/01/02 10:26:38;;;;;;;2.43;2.17;;;;;;;;;;5037546;28;20477;-80
2023/01/02 10:29:07;;;;;;;1.60;1.50;;;;;;;;;;5041265;28;20480;-80
2023/01/02 10:31:37;;;;;;;2.60;2.40;;;;;;;;;;5039188;28;20491;-80
2023/01/02 10:34:05;;;;;;;2.00;1.80;;;;;;;;;;5037351;28;20947;-79
2023/01/02 10:36:33;;;;;;;1.80;1.70;;;;;;;;;;5036095;28;20989;-80
2023/01/02 10:39:00;;;;;;;1.80;1.70;;;;;;;;;;5037939;28;20480;-79
2023/01/02 10:41:29;;;;;;;2.50;2.17;;;;;;;;;;5034511;28;20528;-80
2023/01/02 10:43:57;;;;;;;5.00;2.83;;;;;;;;;;5036098;28;20486;-80
2023/01/02 10:46:23;;;;;;;2.50;2.30;;;;;;;;;;5040797;28;20461;-80
2023/01/02 10:48:50;;;;;;;2.27;1.87;;;;;;;;;;5039177;28;21005;-79
2023/01/02 10:51:18;;;;;;;2.87;2.37;;;;;;;;;;5037356;28;20460;-80
2023/01/02 10:54:00;;;;;;;1.90;1.80;;;;;;;;;;5033701;28;20456;-80
2023/01/02 10:56:30;;;;;;;1.93;1.80;;;;;;;;;;5037754;28;20530;-80
2023/01/02 10:58:57;;;;;;;2.10;1.60;;;;;;;;;;5032740;28;20481;-80
2023/01/02 11:01:23;;;;;;;2.00;1.90;;;;;;;;;;5034595;28;20822;-80
2023/01/02 11:04:09;;;;;;;1.50;1.40;;;;;;;;;;5016772;28;20481;-79
2023/01/02 11:06:39;;;;;;;2.03;1.93;;;;;;;;;;5017053;28;20482;-80
2023/01/02 11:09:17;;;;;;;2.10;1.73;;;;;;;;;;5019346;28;20535;-80
2023/01/02 11:11:50;;;;;;;1.53;1.43;;;;;;;;;;5012681;28;21046;-80
2023/01/02 11:14:20;;;;;;;1.57;1.37;;;;;;;;;;5016776;28;20449;-80
2023/01/02 11:16:47;;;;;;;1.63;1.53;;;;;;;;;;5017396;28;20477;-79
2023/01/02 11:19:20;;;;;;;2.20;1.70;;;;;;;;;;5015167;28;20477;-79
2023/01/02 11:21:47;;;;;;;4.67;1.73;;;;;;;;;;5015569;28;20462;-80
2023/01/02 11:24:18;;;;;;;1.70;1.50;;;;;;;;;;5016261;28;20477;-79
2023/01/02 11:26:47;;;;;;;1.57;1.20;;;;;;;;;;5013950;28;20504;-80
2023/01/02 11:29:17;;;;;;;1.80;1.70;;;;;;;;;;5013828;28;20485;-79
2023/01/02 11:31:46;;;;;;;2.03;1.80;;;;;;;;;;5015876;28;20478;-80
2023/01/02 11:34:18;;;;;;;2.40;1.80;;;;;;;;;;5013206;28;20554;-79
2023/01/02 11:36:45;;;;;;;1.77;1.20;;;;;;;;;;5019918;28;20480;-79
2023/01/02 11:39:22;;;;;;;1.87;1.47;;;;;;;;;;5018554;28;20473;-79
2023/01/02 11:44:47;;;;;;;1.40;1.30;;;;;;;;;;5014058;28;20848;-80
2023/01/02 11:47:14;;;;;;;2.80;1.60;;;;;;;;;;5012222;28;20469;-79
2023/01/02 11:49:43;;;;;;;1.93;1.80;;;;;;;;;;5018631;28;20473;-79
2023/01/02 11:52:13;;;;;;;2.30;2.10;;;;;;;;;;5014669;28;20535;-79
2023/01/02 11:54:43;;;;;;;1.50;1.40;;;;;;;;;;5014307;28;20456;-79
2023/01/02 11:57:11;;;;;;;1.30;1.20;;;;;;;;;;5019652;28;20564;-80
2023/01/02 11:59:40;;;;;;;1.47;1.23;;;;;;;;;;5030693;28;20508;-80
2023/01/02 12:02:13;;;;;;;1.27;1.10;;;;;;;;;;5027072;28;20558;-80
2023/01/02 12:04:39;;;;;;;2.07;1.50;;;;;;;;;;5016671;28;20458;-80
2023/01/02 12:07:17;;;;;;;2.90;1.47;;;;;;;;;;5007911;28;20474;-80
2023/01/02 12:09:49;;;;;;;2.20;1.53;;;;;;;;;;5019159;28;20454;-80
2023/01/02 12:12:29;;;;;;;3.17;1.43;;;;;;;;;;5014425;28;20478;-80
2023/01/02 12:15:07;;;;;;;3.90;1.60;;;;;;;;;;5018379;28;20468;-80
2023/01/02 12:17:37;;;;;;;5.33;1.80;;;;;;;;;;5016486;28;20500;-80
2023/01/02 12:20:13;;;;;;;3.80;1.60;;;;;;;;;;5013841;28;20462;-80
2023/01/02 12:22:58;;;;;;;2.83;1.50;;;;;;;;;;5016652;28;20846;-80
2023/01/02 12:25:32;;;;;;;2.37;1.80;;;;;;;;;;5013904;28;20454;-80
2023/01/02 12:28:02;;;;;;;1.90;1.20;;;;;;;;;;5017820;28;20481;-80
2023/01/02 12:30:33;;;;;;;1.70;1.60;;;;;;;;;;5014812;28;20461;-80
2023/01/02 12:33:07;;;;;;;3.50;1.50;;;;;;;;;;5013149;28;20475;-80
2023/01/02 12:35:40;;;;;;;3.57;1.23;;;;;;;;;;5018401;28;20451;-79
2023/01/02 12:38:07;;;;;;;3.70;1.53;;;;;;;;;;5013905;28;20861;-80
2023/01/02 12:40:37;;;;;;;2.27;1.80;;;;;;;;;;5016910;28;20829;-80
2023/01/02 12:43:18;;;;;;;1.67;1.57;;;;;;;;;;5015294;28;20474;-80
2023/01/02 12:45:49;;;;;;;2.00;1.30;;;;;;;;;;5005119;28;20453;-80
2023/01/02 12:48:26;;;;;;;1.60;1.50;;;;;;;;;;5018600;28;20484;-80
2023/01/02 12:51:10;;;;;;;1.60;1.50;;;;;;;;;;5017774;28;20454;-80
2023/01/02 12:53:44;;;;;;;1.83;1.40;;;;;;;;;;5038954;28;20890;-79
2023/01/02 12:56:14;;;;;;;3.03;1.43;;;;;;;;;;5035082;28;20741;-81
2023/01/02 12:58:55;;;;;;;3.60;1.50;;;;;;;;;;5028613;28;20478;-80
2023/01/02 13:01:27;;;;;;;2.27;2.03;;;;;;;;;;5035748;28;20474;-80
2023/01/02 13:03:57;;;;;;;5.60;2.00;;;;;;;;;;5028109;28;20583;-80
2023/01/02 13:06:26;;;;;;;2.17;1.97;;;;;;;;;;5037163;28;20470;-80
2023/01/02 13:08:57;;;;;;;3.00;2.00;;;;;;;;;;5036398;28;20480;-80
2023/01/02 13:11:27;;;;;;;2.10;1.77;;;;;;;;;;5031244;28;20592;-80
2023/01/02 13:13:53;;;;;;;4.13;2.17;;;;;;;;;;5031261;28;20457;-80
2023/01/02 13:16:20;;;;;;;2.70;1.70;;;;;;;;;;5032899;28;20956;-81
2023/01/02 13:18:53;;;;;;;5.43;2.60;;;;;;;;;;5033033;28;21023;-80
2023/01/02 13:21:24;;;;;;;3.20;2.13;;;;;;;;;;5024179;28;20480;-80
2023/01/02 13:23:51;;;;;;;2.40;1.30;;;;;;;;;;5031825;28;20487;-80
2023/01/02 13:26:20;;;;;;;1.60;1.50;;;;;;;;;;5036116;28;20463;-79
2023/01/02 13:28:53;;;;;;;4.10;1.70;;;;;;;;;;5033604;28;20504;-80
2023/01/02 13:31:19;;;;;;;4.40;1.77;;;;;;;;;;5035823;28;20464;-80
2023/01/02 13:33:48;;;;;;;4.23;1.90;;;;;;;;;;5038684;28;20517;-80
2023/01/02 13:36:19;;;;;;;1.50;1.33;;;;;;;;;;5033941;28;20858;-80
2023/01/02 13:38:47;;;;;;;1.60;1.50;;;;;;;;;;5034298;28;20574;-80
2023/01/02 13:41:18;;;;;;;1.50;1.40;;;;;;;;;;5030220;28;20453;-80
2023/01/02 13:43:47;;;;;;;2.00;1.57;;;;;;;;;;5034065;28;20568;-80
2023/01/02 13:46:13;;;;;;;2.37;1.40;;;;;;;;;;5033057;28;20947;-80
2023/01/02 13:48:43;;;;;;;2.60;1.37;;;;;;;;;;5039975;28;20468;-80
2023/01/02 13:51:13;;;;;;;1.93;1.43;;;;;;;;;;5038843;28;20459;-80
2023/01/02 13:53:42;;;;;;;3.30;1.77;;;;;;;;;;5038088;28;20440;-80
2023/01/02 13:56:09;;;;;;;3.40;1.70;;;;;;;;;;5034872;28;20452;-80
2023/01/02 13:58:37;;;;;;;3.17;1.37;;;;;;;;;;5039582;28;21030;-80
2023/01/02 14:01:22;;;;;;;2.67;1.53;;;;;;;;;;5038177;28;20463;-79
2023/01/02 14:04:11;;;;;;;2.20;1.90;;;;;;;;;;5034789;28;20481;-80
2023/01/02 14:06:40;;;;;;;4.33;2.33;;;;;;;;;;5036996;28;20472;-80
2023/01/02 14:09:07;;;;;;;3.00;2.23;;;;;;;;;;5038333;28;20485;-80
2023/01/02 14:11:37;;;;;;;2.40;2.20;;;;;;;;;;5039675;28;20477;-80
2023/01/02 14:14:08;;;;;;;2.23;2.03;;;;;;;;;;5043123;28;20449;-80
2023/01/02 14:16:59;;;;;;;2.70;2.27;;;;;;;;;;5039682;28;20483;-80
2023/01/02 14:19:25;;;;;;;1.90;1.70;;;;;;;;;;5021264;28;20470;-80
2023/01/02 14:22:01;;;;;;;3.77;2.20;;;;;;;;;;5037281;28;20542;-80
2023/01/02 14:24:29;;;;;;;2.30;1.70;;;;;;;;;;5034423;28;20472;-80
2023/01/02 14:26:57;;;;;;;2.03;1.73;;;;;;;;;;5035782;28;20481;-79
2023/01/02 14:29:24;;;;;;;2.70;2.07;;;;;;;;;;5036079;28;20468;-79
2023/01/02 14:31:57;;;;;;;2.77;1.80;;;;;;;;;;5035759;28;20473;-79
2023/01/02 14:34:24;;;;;;;3.23;1.83;;;;;;;;;;5037090;28;20803;-80
2023/01/02 14:36:53;;;;;;;6.10;2.27;;;;;;;;;;5035397;28;20483;-80
2023/01/02 14:39:24;;;;;;;4.00;2.20;;;;;;;;;;5036782;28;20485;-80
2023/01/02 14:44:52;;;;;;;7.37;2.03;;;;;;;;;;5035054;28;20485;-80
2023/01/02 14:47:23;;;;;;;4.20;1.60;;;;;;;;;;5035836;28;20477;-80
2023/01/02 14:49:54;;;;;;;3.43;2.53;;;;;;;;;;5039722;28;20460;-80